Time;durP1;ratioP1;P1;durP2;ratioP2;P2;SDS_P1;SDS_P2;PMS_P1;PMS_P2;Temp;Humidity;BMP_temperature;BMP_pressure;BME280_temperature;BME280_humidity;BME280_pressure;Samples;Min_cycle;Max_cycle;Signal;HPM_P1;HPM_P2
2022/11/05 00:09:31;;;;;;;;;;;4.20;99.70;;;;;;5033051;28;19916;-79
2022/11/05 00:17:26;;;;;;;;;;;4.20;99.70;;;;;;5028999;28;19924;-78
2022/11/05 00:19:51;;;;;;;;;;;4.20;99.70;;;;;;5025569;28;20373;-79
2022/11/05 00:25:13;;;;;;;;;;;4.20;99.80;;;;;;5026734;28;19916;-79
2022/11/05 00:27:41;;;;;;;;;;;4.10;99.70;;;;;;5014097;28;19967;-78
2022/11/05 00:30:08;;;;;;;;;;;4.10;99.70;;;;;;5029028;28;19919;-78
2022/11/05 00:32:33;;;;;;;;;;;4.10;99.80;;;;;;5032434;28;20470;-78
2022/11/05 00:34:59;;;;;;;;;;;4.10;99.80;;;;;;5029167;28;19960;-79
2022/11/05 00:37:27;;;;;;;;;;;4.20;99.90;;;;;;5029294;28;19913;-78
2022/11/05 00:39:53;;;;;;;;;;;4.40;99.90;;;;;;5024430;28;19909;-78
2022/11/05 00:45:03;;;;;;;;;;;4.50;99.90;;;;;;5028045;28;19920;-78
2022/11/05 00:50:13;;;;;;;;;;;4.60;99.90;;;;;;5021097;28;20301;-79
2022/11/05 00:55:34;;;;;;;;;;;4.70;99.90;;;;;;5027439;28;20481;-80
2022/11/05 00:58:00;;;;;;;;;;;4.80;99.90;;;;;;5026589;28;19912;-78
2022/11/05 01:00:27;;;;;;;;;;;4.80;99.90;;;;;;5033072;28;20011;-79
2022/11/05 01:02:55;;;;;;;;;;;4.80;99.90;;;;;;5029577;28;19916;-79
2022/11/05 01:05:21;;;;;;;;;;;4.70;99.90;;;;;;5032959;28;19913;-78
2022/11/05 01:07:46;;;;;;;;;;;4.70;99.90;;;;;;5030975;28;19924;-78
2022/11/05 01:10:12;;;;;;;;;;;4.70;99.90;;;;;;5025949;28;19913;-80
2022/11/05 01:12:37;;;;;;;;;;;4.70;99.90;;;;;;5022492;28;19920;-77
2022/11/05 01:15:03;;;;;;;;;;;4.70;99.90;;;;;;5031671;28;19905;-78
2022/11/05 01:17:28;;;;;;;;;;;4.70;99.90;;;;;;5031670;28;19909;-78
2022/11/05 01:19:53;;;;;;;;;;;4.70;99.90;;;;;;5029432;28;20334;-78
2022/11/05 01:22:19;;;;;;;;;;;4.60;99.90;;;;;;5032164;28;20425;-78
2022/11/05 01:24:44;;;;;;;;;;;4.60;99.90;;;;;;5032281;28;20004;-78
2022/11/05 01:27:10;;;;;;;;;;;4.50;99.90;;;;;;5023729;28;19909;-78
2022/11/05 01:29:35;;;;;;;;;;;4.50;99.90;;;;;;5023480;28;20257;-78
2022/11/05 01:32:01;;;;;;;;;;;4.40;99.90;;;;;;5024860;28;19936;-78
2022/11/05 01:34:26;;;;;;;;;;;4.40;99.90;;;;;;5023628;28;19904;-78
2022/11/05 01:36:51;;;;;;;;;;;4.40;99.90;;;;;;5031915;28;19920;-79
2022/11/05 01:39:17;;;;;;;;;;;4.30;99.90;;;;;;5028785;28;19913;-81
2022/11/05 01:41:42;;;;;;;;;;;4.20;99.90;;;;;;5027959;28;19959;-79
2022/11/05 01:44:26;;;;;;;;;;;4.20;99.90;;;;;;5023514;28;19905;-79
2022/11/05 01:46:52;;;;;;;;;;;4.30;99.90;;;;;;5023685;28;19939;-80
2022/11/05 01:49:28;;;;;;;;;;;4.30;99.90;;;;;;5024971;28;20019;-80
2022/11/05 01:51:54;;;;;;;;;;;4.20;99.90;;;;;;5028412;28;19924;-78
2022/11/05 01:54:22;;;;;;;;;;;4.10;99.90;;;;;;5026118;28;19951;-78
2022/11/05 01:56:58;;;;;;;;;;;4.10;99.90;;;;;;5034289;28;19928;-78
2022/11/05 01:59:26;;;;;;;;;;;4.00;99.90;;;;;;5036765;28;19909;-78
2022/11/05 02:01:52;;;;;;;;;;;4.10;99.90;;;;;;5030052;28;19944;-78
2022/11/05 02:04:24;;;;;;;;;;;4.00;99.90;;;;;;5024309;28;19956;-78
2022/11/05 02:06:50;;;;;;;;;;;4.00;99.90;;;;;;5031257;28;20334;-78
2022/11/05 02:09:19;;;;;;;;;;;4.10;99.90;;;;;;5029083;28;19959;-78
2022/11/05 02:11:45;;;;;;;;;;;4.10;99.90;;;;;;5033882;28;19917;-79
2022/11/05 02:14:10;;;;;;;;;;;4.10;99.90;;;;;;5036336;28;19905;-78
2022/11/05 02:16:44;;;;;;;;;;;4.20;99.90;;;;;;5031922;28;19932;-79
2022/11/05 02:19:37;;;;;;;;;;;4.20;99.90;;;;;;5029185;28;19916;-78
2022/11/05 02:22:24;;;;;;;;;;;4.00;99.90;;;;;;5024963;28;19913;-79
2022/11/05 02:25:00;;;;;;;;;;;4.00;99.90;;;;;;5032322;28;19963;-79
2022/11/05 02:27:42;;;;;;;;;;;4.00;99.90;;;;;;5033598;28;19912;-81
2022/11/05 02:30:24;;;;;;;;;;;4.00;99.90;;;;;;5031901;28;20254;-79
2022/11/05 02:33:13;;;;;;;;;;;4.10;99.90;;;;;;5034689;28;19998;-78
2022/11/05 02:35:57;;;;;;;;;;;4.10;99.90;;;;;;5031125;28;19913;-78
2022/11/05 02:38:45;;;;;;;;;;;4.10;99.90;;;;;;5026884;28;19909;-78
2022/11/05 02:41:11;;;;;;;;;;;4.30;99.90;;;;;;5034358;28;19905;-78
2022/11/05 02:43:39;;;;;;;;;;;4.30;99.90;;;;;;5032869;28;19916;-79
2022/11/05 02:46:07;;;;;;;;;;;4.30;99.90;;;;;;5027954;28;20276;-79
2022/11/05 02:48:42;;;;;;;;;;;4.30;99.90;;;;;;5025576;28;19910;-80
2022/11/05 02:51:30;;;;;;;;;;;4.20;99.90;;;;;;5016852;28;19913;-79
2022/11/05 02:54:07;;;;;;;;;;;4.20;99.90;;;;;;5027839;28;19921;-79
2022/11/05 02:56:35;;;;;;;;;;;4.10;99.90;;;;;;5026549;28;20448;-79
2022/11/05 02:59:00;;;;;;;;;;;4.10;99.90;;;;;;5028330;28;19955;-79
2022/11/05 03:01:26;;;;;;;;;;;4.10;99.90;;;;;;5016281;28;19952;-80
2022/11/05 03:03:53;;;;;;;;;;;4.00;99.90;;;;;;5031845;28;20339;-79
2022/11/05 03:06:34;;;;;;;;;;;4.00;99.90;;;;;;5030218;28;19909;-78
2022/11/05 03:09:17;;;;;;;;;;;4.00;99.90;;;;;;5012799;28;20005;-79
2022/11/05 03:12:00;;;;;;;;;;;4.10;99.90;;;;;;5014540;28;19927;-79
2022/11/05 03:14:37;;;;;;;;;;;4.00;99.90;;;;;;5012749;28;19910;-78
2022/11/05 03:17:12;;;;;;;;;;;4.00;99.90;;;;;;5018492;28;19977;-78
2022/11/05 03:19:43;;;;;;;;;;;4.00;99.90;;;;;;5008163;28;20447;-78
2022/11/05 03:22:10;;;;;;;;;;;3.90;99.90;;;;;;5004639;28;19992;-79
2022/11/05 03:24:39;;;;;;;;;;;3.90;99.90;;;;;;4995807;28;19917;-81
2022/11/05 03:27:07;;;;;;;;;;;3.90;99.90;;;;;;5006451;28;20400;-79
2022/11/05 03:29:36;;;;;;;;;;;3.80;99.90;;;;;;5004772;28;19921;-80
2022/11/05 03:32:03;;;;;;;;;;;3.80;99.90;;;;;;5011189;28;20378;-80
2022/11/05 03:34:31;;;;;;;;;;;3.80;99.90;;;;;;5010251;28;19909;-79
2022/11/05 03:36:57;;;;;;;;;;;3.70;99.90;;;;;;5002903;28;19925;-79
2022/11/05 03:39:28;;;;;;;;;;;3.70;99.90;;;;;;5008738;28;19909;-79
2022/11/05 03:41:54;;;;;;;;;;;3.70;99.90;;;;;;5015305;28;19906;-78
2022/11/05 03:44:23;;;;;;;;;;;3.70;99.90;;;;;;5012818;28;20276;-79
2022/11/05 03:46:50;;;;;;;;;;;3.70;99.90;;;;;;5011945;28;19913;-79
2022/11/05 03:49:18;;;;;;;;;;;3.60;99.90;;;;;;5006991;28;19914;-80
2022/11/05 03:51:47;;;;;;;;;;;3.50;99.90;;;;;;5014991;28;19960;-79
2022/11/05 03:54:13;;;;;;;;;;;3.60;99.90;;;;;;5013325;28;19909;-82
2022/11/05 03:56:57;;;;;;;;;;;3.60;99.90;;;;;;5007364;28;19932;-80
2022/11/05 03:59:22;;;;;;;;;;;3.60;99.90;;;;;;5014764;28;19941;-79
2022/11/05 04:01:48;;;;;;;;;;;3.60;99.90;;;;;;5013722;28;19955;-79
2022/11/05 04:04:14;;;;;;;;;;;3.60;99.90;;;;;;5006329;28;19953;-80
2022/11/05 04:14:53;;;;;;;;;;;3.70;99.90;;;;;;5031365;28;20042;-79
2022/11/05 04:17:18;;;;;;;;;;;3.70;99.90;;;;;;5030249;28;20027;-79
2022/11/05 04:25:17;;;;;;;;;;;3.80;99.90;;;;;;5024804;28;19920;-79
2022/11/05 04:27:43;;;;;;;;;;;3.80;99.90;;;;;;5032657;28;20323;-79
2022/11/05 04:30:17;;;;;;;;;;;3.80;99.90;;;;;;5024632;28;19912;-79
2022/11/05 04:32:55;;;;;;;;;;;3.70;99.90;;;;;;5031935;28;19955;-79
2022/11/05 04:35:20;;;;;;;;;;;3.70;99.90;;;;;;5029243;28;20448;-79
2022/11/05 04:37:46;;;;;;;;;;;3.60;99.90;;;;;;5020136;28;20076;-79
2022/11/05 04:40:11;;;;;;;;;;;3.60;99.90;;;;;;5028722;28;19909;-79
2022/11/05 04:42:36;;;;;;;;;;;3.60;99.90;;;;;;5025022;28;19905;-80
2022/11/05 04:45:02;;;;;;;;;;;3.60;99.90;;;;;;5033571;28;19916;-80
2022/11/05 04:47:27;;;;;;;;;;;3.50;99.90;;;;;;5032315;28;19905;-81
2022/11/05 04:49:53;;;;;;;;;;;3.60;99.90;;;;;;5027393;28;19964;-79
2022/11/05 04:52:18;;;;;;;;;;;3.60;99.90;;;;;;5030851;28;20043;-78
2022/11/05 04:54:44;;;;;;;;;;;3.70;99.90;;;;;;5031495;28;19970;-79
2022/11/05 04:57:09;;;;;;;;;;;3.70;99.90;;;;;;5024650;28;19905;-80
2022/11/05 04:59:34;;;;;;;;;;;3.60;99.90;;;;;;5030274;28;19917;-79
2022/11/05 05:02:00;;;;;;;;;;;3.60;99.90;;;;;;5026080;28;19914;-79
2022/11/05 05:04:25;;;;;;;;;;;3.60;99.90;;;;;;5027258;28;19905;-80
2022/11/05 05:06:51;;;;;;;;;;;3.50;99.90;;;;;;5023977;28;20295;-79
2022/11/05 05:09:16;;;;;;;;;;;3.40;99.90;;;;;;5033128;28;19993;-81
2022/11/05 05:11:41;;;;;;;;;;;3.40;99.90;;;;;;5016370;28;20292;-80
2022/11/05 05:14:07;;;;;;;;;;;3.40;99.90;;;;;;5032342;28;19909;-79
2022/11/05 05:16:33;;;;;;;;;;;3.40;99.90;;;;;;5023616;28;20395;-80
2022/11/05 05:18:58;;;;;;;;;;;3.40;99.90;;;;;;5031248;28;19909;-80
2022/11/05 05:21:39;;;;;;;;;;;3.40;99.90;;;;;;5033472;28;19928;-80
2022/11/05 05:24:07;;;;;;;;;;;3.40;99.90;;;;;;5027678;28;20071;-79
2022/11/05 05:26:33;;;;;;;;;;;3.20;99.90;;;;;;5016604;28;20003;-80
2022/11/05 05:28:59;;;;;;;;;;;3.10;99.90;;;;;;5015033;28;19999;-69
2022/11/05 05:31:24;;;;;;;;;;;3.10;99.90;;;;;;5026285;28;20035;-70
2022/11/05 05:33:52;;;;;;;;;;;3.10;99.90;;;;;;5028297;28;19919;-70
2022/11/05 05:36:17;;;;;;;;;;;3.00;99.90;;;;;;5032070;28;19905;-70
2022/11/05 05:38:43;;;;;;;;;;;3.10;99.90;;;;;;5029258;28;19909;-70
2022/11/05 05:41:08;;;;;;;;;;;3.10;99.90;;;;;;5034933;28;19931;-69
2022/11/05 05:43:33;;;;;;;;;;;3.10;99.90;;;;;;5023464;28;20321;-70
2022/11/05 05:46:06;;;;;;;;;;;3.20;99.90;;;;;;5028665;28;19967;-69
2022/11/05 05:48:32;;;;;;;;;;;3.20;99.90;;;;;;5031870;28;19919;-70
2022/11/05 05:51:05;;;;;;;;;;;3.40;99.90;;;;;;5010334;28;20311;-69
2022/11/05 05:53:30;;;;;;;;;;;3.30;99.90;;;;;;5029456;28;19919;-69
2022/11/05 05:55:56;;;;;;;;;;;3.30;99.90;;;;;;5016257;28;20404;-72
2022/11/05 05:58:22;;;;;;;;;;;3.40;99.90;;;;;;5027876;28;19913;-73
2022/11/05 06:00:47;;;;;;;;;;;3.40;99.90;;;;;;5026672;28;19909;-70
2022/11/05 06:03:13;;;;;;;;;;;3.50;99.90;;;;;;5017160;28;19908;-69
2022/11/05 06:05:38;;;;;;;;;;;3.50;99.90;;;;;;5031070;28;19905;-69
2022/11/05 06:08:04;;;;;;;;;;;3.50;99.90;;;;;;5021808;28;19917;-69
2022/11/05 06:10:29;;;;;;;;;;;3.50;99.90;;;;;;5026751;28;19917;-69
2022/11/05 06:12:55;;;;;;;;;;;3.40;99.90;;;;;;5028250;28;19913;-69
2022/11/05 06:15:20;;;;;;;;;;;3.50;99.90;;;;;;5031283;28;19913;-69
2022/11/05 06:17:45;;;;;;;;;;;3.40;99.90;;;;;;5020499;28;19936;-69
2022/11/05 06:20:11;;;;;;;;;;;3.50;99.90;;;;;;5026841;28;20387;-70
2022/11/05 06:22:37;;;;;;;;;;;3.40;99.90;;;;;;5026143;28;19912;-70
2022/11/05 06:25:02;;;;;;;;;;;3.40;99.90;;;;;;5033260;28;20039;-70
2022/11/05 06:27:28;;;;;;;;;;;3.50;99.90;;;;;;5028186;28;19912;-70
2022/11/05 06:29:53;;;;;;;;;;;3.50;99.90;;;;;;5024501;28;19920;-69
2022/11/05 06:32:19;;;;;;;;;;;3.40;99.90;;;;;;5030093;28;19909;-69
2022/11/05 06:34:44;;;;;;;;;;;3.30;99.90;;;;;;5023364;28;19920;-69
2022/11/05 06:37:10;;;;;;;;;;;3.30;99.90;;;;;;5019732;28;19917;-70
2022/11/05 06:39:35;;;;;;;;;;;3.30;99.90;;;;;;5016969;28;19917;-69
2022/11/05 06:42:01;;;;;;;;;;;3.30;99.90;;;;;;5025923;28;19920;-69
2022/11/05 06:44:26;;;;;;;;;;;3.40;99.90;;;;;;5031349;28;19909;-70
2022/11/05 06:46:52;;;;;;;;;;;3.40;99.90;;;;;;5034261;28;19912;-69
2022/11/05 06:49:17;;;;;;;;;;;3.50;99.90;;;;;;5031801;28;20339;-68
2022/11/05 06:51:43;;;;;;;;;;;3.50;99.90;;;;;;5032449;28;19913;-69
2022/11/05 06:54:08;;;;;;;;;;;3.50;99.90;;;;;;5028504;28;19917;-69
2022/11/05 06:56:33;;;;;;;;;;;3.50;99.90;;;;;;5027920;28;19909;-69
2022/11/05 06:58:59;;;;;;;;;;;3.60;99.90;;;;;;5032680;28;20357;-68
2022/11/05 07:01:24;;;;;;;;;;;3.60;99.90;;;;;;5033153;28;19917;-70
2022/11/05 07:03:50;;;;;;;;;;;3.60;99.90;;;;;;5028914;28;19925;-68
2022/11/05 07:06:15;;;;;;;;;;;3.70;99.90;;;;;;5028575;28;19913;-69
2022/11/05 07:08:41;;;;;;;;;;;3.70;99.90;;;;;;5018372;28;19964;-70
2022/11/05 07:11:06;;;;;;;;;;;3.70;99.90;;;;;;5028853;28;19995;-69
2022/11/05 07:13:32;;;;;;;;;;;3.70;99.90;;;;;;5021806;28;20308;-71
2022/11/05 07:15:57;;;;;;;;;;;3.70;99.90;;;;;;5031123;28;19917;-68
2022/11/05 07:18:23;;;;;;;;;;;3.70;99.90;;;;;;5016234;28;19913;-71
2022/11/05 07:20:48;;;;;;;;;;;3.70;99.90;;;;;;5016622;28;19909;-67
2022/11/05 07:23:14;;;;;;;;;;;3.80;99.90;;;;;;5015326;28;20264;-67
2022/11/05 07:25:40;;;;;;;;;;;3.80;99.90;;;;;;5029127;28;19923;-70
2022/11/05 07:28:07;;;;;;;;;;;3.90;99.90;;;;;;5011930;28;20356;-69
2022/11/05 07:30:33;;;;;;;;;;;3.90;99.90;;;;;;5014533;28;19995;-69
2022/11/05 07:32:58;;;;;;;;;;;4.00;99.90;;;;;;5024811;28;19913;-69
2022/11/05 07:35:24;;;;;;;;;;;4.10;99.90;;;;;;5008893;28;20023;-68
2022/11/05 07:37:50;;;;;;;;;;;4.20;99.90;;;;;;5032768;28;20369;-69
2022/11/05 07:40:18;;;;;;;;;;;4.40;99.90;;;;;;5023681;28;19935;-68
2022/11/05 07:42:50;;;;;;;;;;;4.40;99.90;;;;;;5023379;28;19905;-68
2022/11/05 07:45:16;;;;;;;;;;;4.40;99.90;;;;;;5025561;28;19920;-69
2022/11/05 07:47:46;;;;;;;;;;;4.40;99.90;;;;;;5003556;28;19917;-69
2022/11/05 07:50:11;;;;;;;;;;;4.50;99.90;;;;;;5029403;28;20020;-69
2022/11/05 07:52:37;;;;;;;;;;;4.50;99.90;;;;;;5009859;28;20003;-70
2022/11/05 07:55:02;;;;;;;;;;;4.50;99.90;;;;;;5024891;28;19920;-69
2022/11/05 07:57:28;;;;;;;;;;;4.60;99.90;;;;;;5029055;28;19921;-68
2022/11/05 07:59:53;;;;;;;;;;;4.60;99.90;;;;;;5031663;28;19913;-69
2022/11/05 08:02:18;;;;;;;;;;;4.60;99.90;;;;;;5029903;28;20262;-68
2022/11/05 08:04:44;;;;;;;;;;;4.60;99.90;;;;;;5017265;28;19923;-68
2022/11/05 08:07:09;;;;;;;;;;;4.60;99.90;;;;;;5013630;28;19924;-68
2022/11/05 08:09:35;;;;;;;;;;;4.70;99.90;;;;;;5028977;28;19952;-70
2022/11/05 08:12:00;;;;;;;;;;;4.80;99.90;;;;;;5027228;28;20425;-68
2022/11/05 08:14:25;;;;;;;;;;;4.80;99.90;;;;;;5028911;28;20342;-69
2022/11/05 08:16:51;;;;;;;;;;;4.90;99.90;;;;;;5031167;28;20341;-69
2022/11/05 08:19:16;;;;;;;;;;;5.00;99.90;;;;;;5025649;28;20357;-68
2022/11/05 08:21:42;;;;;;;;;;;5.20;99.90;;;;;;5032044;28;19909;-69
2022/11/05 08:24:07;;;;;;;;;;;5.20;99.90;;;;;;5025972;28;19913;-69
2022/11/05 08:26:33;;;;;;;;;;;5.30;99.90;;;;;;5028047;28;19920;-69
2022/11/05 08:28:59;;;;;;;;;;;5.40;99.90;;;;;;5037343;28;19909;-69
2022/11/05 08:31:25;;;;;;;;;;;5.40;99.90;;;;;;5023642;28;19913;-71
2022/11/05 08:33:50;;;;;;;;;;;5.50;99.90;;;;;;5023185;28;19917;-72
2022/11/05 08:36:16;;;;;;;;;;;5.50;99.90;;;;;;5023454;28;19920;-70
2022/11/05 08:38:41;;;;;;;;;;;5.60;99.90;;;;;;5032201;28;20014;-71
2022/11/05 08:41:08;;;;;;;;;;;5.70;99.90;;;;;;5031535;28;19909;-70
2022/11/05 08:43:34;;;;;;;;;;;5.80;99.90;;;;;;5030269;28;19916;-70
2022/11/05 08:46:00;;;;;;;;;;;5.80;99.90;;;;;;5031041;28;19904;-71
2022/11/05 08:48:26;;;;;;;;;;;5.90;99.90;;;;;;5025686;28;19929;-69
2022/11/05 08:50:51;;;;;;;;;;;6.10;99.90;;;;;;5029212;28;19917;-71
2022/11/05 08:53:17;;;;;;;;;;;6.10;99.90;;;;;;5030507;28;19952;-69
2022/11/05 08:55:43;;;;;;;;;;;6.10;99.60;;;;;;5032172;28;19912;-70
2022/11/05 08:58:11;;;;;;;;;;;6.20;99.50;;;;;;5026544;28;19912;-70
2022/11/05 09:00:37;;;;;;;;;;;6.30;99.50;;;;;;5030566;28;20363;-70
2022/11/05 09:03:03;;;;;;;;;;;6.50;99.50;;;;;;5029777;28;19909;-71
2022/11/05 09:05:29;;;;;;;;;;;6.60;99.20;;;;;;5028943;28;19909;-69
2022/11/05 09:07:56;;;;;;;;;;;6.70;98.90;;;;;;5022415;28;19921;-69
2022/11/05 09:10:22;;;;;;;;;;;6.80;98.80;;;;;;5029795;28;19955;-71
2022/11/05 09:12:47;;;;;;;;;;;7.00;98.60;;;;;;5030040;28;19948;-70
2022/11/05 09:15:13;;;;;;;;;;;7.00;98.20;;;;;;5030184;28;19909;-70
2022/11/05 09:17:39;;;;;;;;;;;7.20;98.30;;;;;;5029342;28;20283;-71
2022/11/05 09:20:06;;;;;;;;;;;7.30;98.00;;;;;;5029862;28;19913;-71
2022/11/05 09:22:31;;;;;;;;;;;7.30;97.50;;;;;;5026670;28;19912;-69
2022/11/05 09:24:56;;;;;;;;;;;7.40;97.20;;;;;;5026185;28;19932;-70
2022/11/05 09:27:22;;;;;;;;;;;7.50;96.80;;;;;;5030631;28;20336;-71
2022/11/05 09:29:47;;;;;;;;;;;7.60;96.80;;;;;;5030016;28;19909;-70
2022/11/05 09:32:17;;;;;;;;;;;7.70;96.10;;;;;;5029055;28;20016;-70
2022/11/05 09:34:43;;;;;;;;;;;7.80;95.80;;;;;;5026897;28;19916;-69
2022/11/05 09:37:09;;;;;;;;;;;8.00;95.90;;;;;;5027575;28;20332;-69
2022/11/05 09:39:34;;;;;;;;;;;8.00;95.00;;;;;;5029971;28;19909;-70
2022/11/05 09:42:03;;;;;;;;;;;8.10;95.10;;;;;;5019216;28;19920;-70
2022/11/05 09:44:47;;;;;;;;;;;8.20;94.90;;;;;;5025789;28;19905;-70
2022/11/05 09:47:19;;;;;;;;;;;8.30;94.90;;;;;;5022848;28;19909;-70
2022/11/05 09:49:48;;;;;;;;;;;8.50;94.30;;;;;;5030092;28;20438;-70
2022/11/05 09:52:18;;;;;;;;;;;8.60;93.70;;;;;;5026395;28;19913;-70
2022/11/05 09:54:44;;;;;;;;;;;8.70;93.70;;;;;;5030254;28;19909;-70
2022/11/05 09:57:14;;;;;;;;;;;8.90;92.90;;;;;;5022596;28;19905;-71
2022/11/05 09:59:42;;;;;;;;;;;9.10;92.90;;;;;;5033700;28;19908;-70
2022/11/05 10:02:14;;;;;;;;;;;9.10;92.20;;;;;;5031027;28;19940;-71
2022/11/05 10:04:42;;;;;;;;;;;9.20;91.30;;;;;;5030592;28;20370;-70
2022/11/05 10:07:11;;;;;;;;;;;9.40;91.30;;;;;;5029205;28;20008;-70
2022/11/05 10:09:39;;;;;;;;;;;9.30;90.20;;;;;;5010045;28;19917;-69
2022/11/05 10:12:14;;;;;;;;;;;9.40;90.30;;;;;;5031233;28;19916;-70
2022/11/05 10:14:41;;;;;;;;;;;9.60;90.60;;;;;;5023803;28;19909;-71
2022/11/05 10:17:11;;;;;;;;;;;9.60;88.90;;;;;;5012001;28;19909;-70
2022/11/05 10:19:46;;;;;;;;;;;9.70;90.20;;;;;;5018111;28;19948;-70
2022/11/05 10:22:15;;;;;;;;;;;9.80;89.70;;;;;;5033525;28;19935;-70
2022/11/05 10:24:42;;;;;;;;;;;10.00;88.90;;;;;;5031914;28;19920;-71
2022/11/05 10:27:13;;;;;;;;;;;10.10;88.20;;;;;;5017372;28;19912;-70
2022/11/05 10:29:39;;;;;;;;;;;10.30;88.00;;;;;;5015524;28;20376;-71
2022/11/05 10:32:06;;;;;;;;;;;10.30;86.50;;;;;;5011972;28;19963;-70
2022/11/05 10:34:33;;;;;;;;;;;10.30;86.10;;;;;;5014639;28;19913;-71
2022/11/05 10:36:58;;;;;;;;;;;10.20;86.20;;;;;;5017459;28;19905;-72
2022/11/05 10:39:26;;;;;;;;;;;10.40;85.70;;;;;;5017446;28;19912;-71
2022/11/05 10:42:10;;;;;;;;;;;10.50;86.30;;;;;;5013462;28;19917;-72
2022/11/05 10:44:35;;;;;;;;;;;10.70;85.60;;;;;;5016064;28;19936;-71
2022/11/05 10:47:19;;;;;;;;;;;10.80;84.20;;;;;;5033351;28;20436;-70
2022/11/05 10:49:51;;;;;;;;;;;10.90;83.40;;;;;;5015531;28;20261;-71
2022/11/05 10:52:41;;;;;;;;;;;11.10;82.80;;;;;;5015055;28;19996;-70
2022/11/05 10:55:14;;;;;;;;;;;11.30;82.20;;;;;;5031250;28;19975;-72
2022/11/05 10:57:40;;;;;;;;;;;11.60;81.60;;;;;;5003981;28;20003;-73
2022/11/05 11:00:18;;;;;;;;;;;12.00;81.20;;;;;;5010809;28;20420;-71
2022/11/05 11:03:02;;;;;;;;;;;12.10;80.00;;;;;;5015718;28;19905;-71
2022/11/05 11:05:34;;;;;;;;;;;12.30;80.50;;;;;;5016983;28;19909;-71
2022/11/05 11:08:05;;;;;;;;;;;12.10;80.30;;;;;;5015849;28;19924;-71
2022/11/05 11:10:35;;;;;;;;;;;12.00;79.00;;;;;;5025638;28;20380;-71
2022/11/05 11:13:00;;;;;;;;;;;12.30;79.40;;;;;;5033512;28;19938;-71
2022/11/05 11:15:27;;;;;;;;;;;12.50;77.60;;;;;;5033121;28;20003;-71
2022/11/05 11:17:54;;;;;;;;;;;12.60;77.30;;;;;;5031912;28;20003;-71
2022/11/05 11:20:27;;;;;;;;;;;12.70;76.10;;;;;;5032468;28;20273;-71
2022/11/05 11:23:00;;;;;;;;;;;12.60;75.70;;;;;;5030608;28;19915;-71
2022/11/05 11:25:34;;;;;;;;;;;12.90;76.10;;;;;;5038141;28;20039;-72
2022/11/05 11:28:03;;;;;;;;;;;12.80;76.40;;;;;;5040469;28;19905;-70
2022/11/05 11:30:28;;;;;;;;;;;12.80;75.70;;;;;;5043159;28;19995;-71
2022/11/05 11:32:57;;;;;;;;;;;13.00;75.90;;;;;;5023831;28;19941;-71
2022/11/05 11:35:24;;;;;;;;;;;13.00;75.90;;;;;;5034631;28;20556;-72
2022/11/05 11:37:54;;;;;;;;;;;13.40;75.10;;;;;;5032953;28;20483;-73
2022/11/05 11:40:21;;;;;;;;;;;13.30;74.00;;;;;;5026794;28;20359;-71
2022/11/05 11:42:48;;;;;;;;;;;13.60;73.70;;;;;;5033004;28;19905;-73
2022/11/05 11:45:26;;;;;;;;;;;13.80;74.20;;;;;;5033487;28;19912;-74
2022/11/05 11:47:53;;;;;;;;;;;13.50;72.80;;;;;;5033326;28;20337;-72
2022/11/05 11:50:31;;;;;;;;;;;13.80;73.70;;;;;;5031944;28;19909;-71
2022/11/05 11:53:15;;;;;;;;;;;13.70;72.50;;;;;;5034331;28;19999;-72
2022/11/05 11:55:55;;;;;;;;;;;14.20;71.30;;;;;;5028958;28;19921;-71
2022/11/05 11:58:21;;;;;;;;;;;14.20;71.90;;;;;;5020019;28;19905;-74
2022/11/05 12:00:59;;;;;;;;;;;14.10;71.00;;;;;;5032160;28;19921;-71
2022/11/05 12:03:34;;;;;;;;;;;14.00;71.30;;;;;;5032219;28;19913;-73
2022/11/05 12:06:22;;;;;;;;;;;14.00;71.50;;;;;;5034140;28;20218;-72
2022/11/05 12:09:07;;;;;;;;;;;14.00;71.20;;;;;;5028509;28;19916;-71
2022/11/05 12:11:46;;;;;;;;;;;14.20;71.10;;;;;;5029695;28;20393;-73
2022/11/05 12:14:27;;;;;;;;;;;14.30;70.50;;;;;;5026056;28;20304;-72
2022/11/05 12:17:08;;;;;;;;;;;14.30;71.00;;;;;;5028723;28;20353;-71
2022/11/05 12:19:40;;;;;;;;;;;14.10;71.20;;;;;;5032706;28;19905;-71
2022/11/05 12:22:05;;;;;;;;;;;13.50;72.50;;;;;;5031320;28;19944;-71
2022/11/05 12:24:39;;;;;;;;;;;13.40;72.90;;;;;;5030444;28;19959;-71
2022/11/05 12:27:24;;;;;;;;;;;13.40;73.30;;;;;;5038907;28;19932;-72
2022/11/05 12:29:51;;;;;;;;;;;13.10;74.20;;;;;;5028576;28;19924;-72
2022/11/05 12:32:36;;;;;;;;;;;13.00;73.80;;;;;;5037438;28;19909;-71
2022/11/05 12:35:20;;;;;;;;;;;12.70;74.20;;;;;;5024952;28;19917;-71
2022/11/05 12:38:04;;;;;;;;;;;13.20;73.20;;;;;;5030228;28;20008;-71
2022/11/05 12:40:32;;;;;;;;;;;13.60;72.50;;;;;;5030145;28;19967;-71
2022/11/05 12:43:04;;;;;;;;;;;13.50;73.20;;;;;;5028879;28;19909;-74
2022/11/05 12:45:42;;;;;;;;;;;13.30;73.20;;;;;;5029185;28;19909;-72
2022/11/05 12:48:13;;;;;;;;;;;13.10;74.10;;;;;;5030068;28;19913;-72
2022/11/05 12:50:43;;;;;;;;;;;12.70;75.70;;;;;;5030399;28;19975;-73
2022/11/05 12:53:27;;;;;;;;;;;12.60;76.10;;;;;;5032315;28;19905;-72
2022/11/05 12:55:53;;;;;;;;;;;12.60;76.40;;;;;;5025867;28;19917;-73
2022/11/05 12:58:36;;;;;;;;;;;12.50;77.00;;;;;;5024951;28;19995;-73
2022/11/05 13:01:07;;;;;;;;;;;12.60;77.40;;;;;;5021059;28;20390;-73
2022/11/05 13:03:53;;;;;;;;;;;12.50;76.70;;;;;;5030450;28;19908;-72
2022/11/05 13:06:29;;;;;;;;;;;12.90;76.40;;;;;;5031780;28;19928;-71
2022/11/05 13:09:04;;;;;;;;;;;12.60;77.10;;;;;;5024008;28;20004;-71
2022/11/05 13:11:34;;;;;;;;;;;12.70;77.20;;;;;;5032045;28;19909;-72
2022/11/05 13:14:04;;;;;;;;;;;12.50;77.50;;;;;;5029494;28;19909;-71
2022/11/05 13:16:32;;;;;;;;;;;12.70;76.70;;;;;;5032912;28;20343;-71
2022/11/05 13:19:16;;;;;;;;;;;12.50;77.30;;;;;;5043922;28;19905;-72
2022/11/05 13:21:44;;;;;;;;;;;12.60;77.00;;;;;;5023998;28;19919;-72
2022/11/05 13:24:13;;;;;;;;;;;12.70;77.50;;;;;;5027966;28;19920;-72
2022/11/05 13:26:48;;;;;;;;;;;13.10;76.10;;;;;;5030391;28;19921;-72
2022/11/05 13:29:19;;;;;;;;;;;12.90;75.90;;;;;;5030052;28;19905;-71
2022/11/05 13:32:11;;;;;;;;;;;13.30;75.20;;;;;;5016353;28;19976;-72
2022/11/05 13:34:37;;;;;;;;;;;13.20;75.00;;;;;;4993665;28;19905;-71
2022/11/05 13:39:53;;;;;;;;;;;12.70;77.30;;;;;;5024142;28;19920;-71
2022/11/05 13:42:42;;;;;;;;;;;12.20;78.00;;;;;;5019976;28;20428;-71
2022/11/05 13:45:16;;;;;;;;;;;12.00;79.00;;;;;;5016592;28;19955;-70
2022/11/05 13:47:58;;;;;;;;;;;11.90;79.60;;;;;;5024145;28;20303;-70
2022/11/05 13:50:27;;;;;;;;;;;11.90;79.90;;;;;;5021752;28;19913;-69
2022/11/05 13:52:55;;;;;;;;;;;12.40;79.20;;;;;;5027273;28;19999;-71
2022/11/05 13:55:29;;;;;;;;;;;12.50;78.90;;;;;;5021415;28;20369;-69
2022/11/05 13:58:03;;;;;;;;;;;12.80;77.80;;;;;;5022213;28;20321;-70
2022/11/05 14:00:33;;;;;;;;;;;13.10;76.70;;;;;;5020987;28;19920;-69
2022/11/05 14:03:03;;;;;;;;;;;12.80;76.80;;;;;;5024581;28;19920;-70
2022/11/05 14:05:31;;;;;;;;;;;12.50;77.00;;;;;;5031624;28;20363;-69
2022/11/05 14:07:57;;;;;;;;;;;12.20;77.80;;;;;;5028349;28;20357;-69
2022/11/05 14:10:38;;;;;;;;;;;12.10;78.70;;;;;;5031201;28;19909;-69
2022/11/05 14:13:14;;;;;;;;;;;12.20;78.60;;;;;;5001842;28;19910;-69
2022/11/05 14:15:50;;;;;;;;;;;12.00;79.10;;;;;;5025121;28;20004;-69
2022/11/05 14:18:34;;;;;;;;;;;11.90;79.60;;;;;;5011635;28;20343;-69
2022/11/05 14:21:01;;;;;;;;;;;12.00;79.10;;;;;;5023711;28;19913;-69
2022/11/05 14:23:29;;;;;;;;;;;11.70;80.10;;;;;;5030322;28;20423;-69
2022/11/05 14:25:55;;;;;;;;;;;11.50;80.60;;;;;;5010103;28;19913;-69
2022/11/05 14:28:35;;;;;;;;;;;11.20;81.20;;;;;;5024298;28;19931;-71
2022/11/05 14:31:01;;;;;;;;;;;11.00;82.00;;;;;;5022529;28;19921;-69
2022/11/05 14:33:26;;;;;;;;;;;10.80;82.60;;;;;;5018915;28;19909;-69
2022/11/05 14:36:09;;;;;;;;;;;10.70;83.10;;;;;;5020012;28;20008;-69
2022/11/05 14:38:34;;;;;;;;;;;10.60;83.50;;;;;;5009129;28;20076;-69
2022/11/05 14:41:01;;;;;;;;;;;10.50;83.60;;;;;;5026894;28;20023;-70
2022/11/05 14:43:28;;;;;;;;;;;10.40;84.10;;;;;;5026538;28;20324;-71
2022/11/05 14:45:53;;;;;;;;;;;10.30;84.40;;;;;;5028316;28;20003;-69
2022/11/05 14:48:39;;;;;;;;;;;10.20;84.60;;;;;;5009839;28;20091;-69
2022/11/05 14:51:27;;;;;;;;;;;10.20;84.80;;;;;;5028350;28;19954;-69
2022/11/05 14:54:01;;;;;;;;;;;10.10;85.20;;;;;;5029034;28;20407;-70
2022/11/05 14:56:27;;;;;;;;;;;10.00;85.50;;;;;;5024593;28;19917;-69
2022/11/05 14:59:13;;;;;;;;;;;10.10;85.50;;;;;;5025512;28;19909;-71
2022/11/05 15:01:38;;;;;;;;;;;10.10;85.50;;;;;;5003719;28;19924;-69
2022/11/05 15:04:24;;;;;;;;;;;10.10;85.40;;;;;;5024505;28;19909;-70
2022/11/05 15:07:01;;;;;;;;;;;10.10;85.60;;;;;;4994814;28;20004;-72
2022/11/05 15:09:47;;;;;;;;;;;10.00;85.70;;;;;;5029177;28;20316;-70
2022/11/05 15:12:12;;;;;;;;;;;10.00;85.90;;;;;;5015209;28;19979;-69
2022/11/05 15:14:41;;;;;;;;;;;9.80;86.40;;;;;;5033794;28;19909;-70
2022/11/05 15:17:12;;;;;;;;;;;9.70;86.50;;;;;;5029695;28;19916;-69
2022/11/05 15:19:39;;;;;;;;;;;9.70;86.60;;;;;;5031236;28;19915;-69
2022/11/05 15:22:09;;;;;;;;;;;9.60;87.00;;;;;;5028301;28;19924;-69